Список аэропортов
Фактическая погода:

21 января, 12:50
Температура: +1°C (-4.6*)
Ветер: западный 7 м/с
Давление: *758 мм
неб. облачность
450 м
разорв. обл.
600 м
Время (МСК)Темп. СВетерВлажностьДавлениеОблачностьОсадки
09:00+1СЗ, 6 м/с89%1006 гПаоблачнодождь
10:00+1СЗ, 6 м/с89%1007 гПаоблачнодождь
11:00+1СЗ, 6 м/с87%1008 гПаоблачнодождь
12:00+1СЗ, 7 м/с84%1009 гПаоблачнодождь
13:00+2СЗ, 8 м/с77%1010 гПаоблачнодождь
14:00+2СЗ, 8 м/с74%1011 гПаоблачносл. дождь
15:00+2СЗ, 7 м/с74%1012 гПаоблачносл. дождь
16:00+2СЗ, 7 м/с77%1013 гПаоблачнодождь
17:00+2СЗ, 6 м/с80%1015 гПаоблачнодождь
18:00+2СЗ, 5 м/с81%1016 гПаоблачнодождь
19:00+1СЗ, 5 м/с83%1017 гПаоблачнодождь
20:00+2СЗ, 5 м/с78%1018 гПаоблачнодождь
21:00+1З, 6 м/с73%1018 гПаоблачносл. дождь
22:00+1З, 5 м/с71%1019 гПаоблачно
23:00+1З, 4 м/с71%1019 гПас прояснениями
22 января
00:00-0З, 3 м/с73%1019 гПас прояснениями
01:00-1З, 2 м/с74%1019 гПас прояснениями
02:00-2ЮЗ, 2 м/с77%1019 гПаоблачно
03:00-2Ю, 2 м/с80%1018 гПаоблачно
04:00-2Ю, 2 м/с79%1017 гПаоблачно
05:00-1Ю, 2 м/с76%1016 гПаоблачно
06:00-1ЮВ, 3 м/с79%1015 гПаоблачноснег
07:00-0ЮВ, 4 м/с80%1014 гПаоблачноснег
08:00-0ЮВ, 4 м/с81%1013 гПаоблачносл. снег
09:00-0ЮВ, 4 м/с82%1013 гПаоблачносл. снег
10:00-0ЮВ, 4 м/с80%1013 гПаоблачносл. снег
11:000ЮВ, 4 м/с79%1012 гПаоблачно
12:000ЮВ, 4 м/с80%1012 гПаоблачноснег
13:000ЮВ, 3 м/с85%1011 гПаоблачноснег
14:00+1ЮВ, 2 м/с86%1010 гПаоблачнодождь
15:00+1Ю, 2 м/с88%1010 гПаоблачнодождь
16:00+2Ю, 1 м/с93%1010 гПаоблачно
17:00+2Штиль 96%1010 гПаоблачносл. дождь
18:00+4ЮЗ, 2 м/с97%1009 гПаоблачно
19:00+4ЮЗ, 2 м/с98%1010 гПаоблачно
20:00+5ЮЗ, 3 м/с96%1009 гПаоблачнодождь
21:00+5ЮЗ, 3 м/с96%1009 гПаоблачнодождь
22:00+6З, 4 м/с94%1010 гПаоблачнодождь
23:00+6ЮЗ, 5 м/с95%1010 гПаоблачносл. дождь
23 января
00:00+6ЮЗ, 5 м/с94%1010 гПаоблачнодождь
01:00+6З, 5 м/с92%1011 гПаоблачносл. дождь
02:00+7З, 5 м/с91%1011 гПаоблачнодождь
03:00+5СЗ, 7 м/с82%1014 гПаоблачнодождь
04:00+5СЗ, 6 м/с79%1015 гПаоблачносл. дождь
05:00+4СЗ, 7 м/с78%1016 гПаоблачно
06:00+4СЗ, 6 м/с76%1018 гПаоблачно
07:00+4СЗ, 6 м/с77%1019 гПаоблачно
08:00+4СЗ, 6 м/с77%1020 гПаоблачно
09:00+4З, 5 м/с75%1021 гПаоблачно